METAR Data
IDs: Format: Raw Decoded Include TAF

Data at: 0852 UTC 20 Sep 2018

KMNE 200835Z AUTO 00000KT 10SM CLR 23/22 A2996 RMK AO2 T02320215
KMNE 200815Z AUTO 00000KT 10SM CLR 23/22 A2997 RMK AO2 T02310215
KMNE 200755Z AUTO 00000KT 10SM CLR 24/22 A2996 RMK AO2 T02350216
KMNE 200735Z AUTO 00000KT 10SM CLR 24/22 A2996 RMK AO2 T02350217
KMNE 200715Z AUTO 00000KT 10SM CLR 24/22 A2997 RMK AO2 T02350217
KMNE 200655Z AUTO 00000KT 10SM CLR 24/22 A2997 RMK AO2 T02370216
KMNE 200635Z AUTO 00000KT 10SM CLR 24/22 A2997 RMK AO2 T02370220
KMNE 200615Z AUTO 14003KT 10SM CLR 24/22 A2997 RMK AO2 T02380219
KMNE 200555Z AUTO 00000KT 10SM CLR 24/22 A2997 RMK AO2 T02410218 10285 20241 403710240
KMNE 200535Z AUTO 00000KT 10SM CLR 25/22 A2997 RMK AO2 T02450222
KMNE 200515Z AUTO 00000KT 10SM CLR 25/22 A2997 RMK AO2 T02450223
KMNE 200455Z AUTO 00000KT 10SM CLR 25/22 A2996 RMK AO2 T02460223
KMNE 200435Z AUTO 00000KT 10SM CLR 25/22 A2996 RMK AO2 T02510220
KMNE 200415Z AUTO 00000KT 10SM CLR 25/22 A2997 RMK AO2 T02520222 PWINO
KMNE 200355Z AUTO 19003KT 10SM CLR 25/22 A2997 RMK AO2 T02530220
KMNE 200335Z AUTO 22005KT 10SM CLR 26/22 A2996 RMK AO2 T02570220
KMNE 200315Z AUTO 00000KT 10SM CLR 27/21 A2995 RMK AO2 T02660212
KMNE 200255Z AUTO 14003KT 10SM CLR 27/21 A2995 RMK AO2 T02710205
KMNE 200235Z AUTO 05004KT 10SM SCT060 27/21 A2995 RMK AO2 T02740207
KMNE 200215Z AUTO 08008G15KT 10SM SCT060 28/22 A2996 RMK AO2 LTG DSNT NE T02750216
KMNE 200155Z AUTO 08009KT 10SM VCTS CLR 27/22 A2996 RMK AO2 LTG DSNT NE AND E T02660218
KMNE 200135Z AUTO 14004KT 10SM CLR 27/22 A2993 RMK AO2 LTG DSNT NE E AND W T02650217
KMNE 200115Z AUTO 19004KT 10SM CLR 27/22 A2992 RMK AO2 LTG DSNT E T02670215 PWINO
KMNE 200055Z AUTO 22005KT 10SM CLR 27/22 A2992 RMK AO2 LTG DSNT E THRU S T02720223
KMNE 200035Z AUTO 20007G19KT 10SM CLR 28/24 A2993 RMK AO2 LTG DSNT SW T02770237
KMNE 200015Z AUTO 00000KT 10SM CLR 28/24 A2991 RMK AO2 T02820238
KMNE 192355Z AUTO 00000KT 10SM CLR 28/24 A2992 RMK AO2 LTG DSNT SE THRU W T02810238 10371 20278 PWINO
KMNE 192335Z AUTO 00000KT 10SM CLR 29/24 A2992 RMK AO2 LTG DSNT SE AND SW T02870237
KMNE 192315Z AUTO 21004KT 10SM SCT060 SCT070 SCT100 29/24 A2992 RMK AO2 LTG DSNT S AND SW T02900235
KMNE 192255Z AUTO 35003KT 10SM SCT060 SCT070 BKN100 29/23 A2991 RMK AO2 LTG DSNT S AND SW T02850228
KMNE 192235Z AUTO 19008G16KT 10SM VCTS SCT055 SCT065 SCT080 29/24 A2991 RMK AO2 LTG DSNT S THRU NW T02880240
KMNE 192215Z AUTO 31007KT 10SM TS SCT024 SCT060 BKN080 29/24 A2990 RMK AO2 LTG DSNT NW T02910237
KMNE 192155Z AUTO 21007KT 10SM SCT022 OVC060 33/23 A2991 RMK AO2 T03300231 PWINO
KMNE 192135Z AUTO 06003KT 10SM SCT060 37/21 A2989 RMK AO2 T03670206 PWINO
KMNE 192115Z AUTO 21003KT 10SM CLR 37/20 A2990 RMK AO2 T03680204 PWINO
KMNE 192055Z AUTO 24004KT 10SM CLR 37/21 A2991 RMK AO2 T03700212
KMNE 192035Z AUTO 00000KT 10SM CLR 37/21 A2991 RMK AO2 T03650211
KMNE 192015Z AUTO 00000KT 10SM SCT060 35/21 A2991 RMK AO2 T03520213
KMNE 191955Z AUTO 14004KT 10SM SCT060 36/21 A2993 RMK AO2 T03570212
KMNE 191935Z AUTO 04004KT 10SM SCT060 BKN075 BKN090 36/22 A2994 RMK AO2 T03550218 PWINO
KMNE 191915Z AUTO 08003KT 10SM BKN060 BKN075 37/21 A2994 RMK AO2 T03660213
KMNE 191855Z AUTO 00000KT 10SM CLR 35/21 A2995 RMK AO2 T03520211 PWINO
KMNE 191835Z AUTO 00000KT 10SM CLR 37/21 A2996 RMK AO2 T03650211
KMNE 191815Z AUTO 00000KT 10SM CLR 36/21 A2997 RMK AO2 T03600209 PWINO
KMNE 191755Z AUTO 00000KT 10SM CLR 35/22 A2997 RMK AO2 T03540215 10355 20240
KMNE 191735Z AUTO 00000KT 10SM CLR 35/21 A2998 RMK AO2 T03540213 PWINO
KMNE 191715Z AUTO 00000KT 10SM CLR 36/22 A2999 RMK AO2 T03550220 PWINO
KMNE 191655Z AUTO 00000KT 10SM CLR 35/23 A2999 RMK AO2 T03470226
KMNE 191635Z AUTO 00000KT 10SM CLR 34/23 A3000 RMK AO2 T03370226
KMNE 191615Z AUTO 00000KT 10SM CLR 33/23 A3000 RMK AO2 T03310232
KMNE 191555Z AUTO 00000KT 10SM CLR 33/24 A3000 RMK AO2 T03250235
KMNE 191535Z AUTO 00000KT 10SM CLR 33/24 A3000 RMK AO2 T03250236 PWINO
KMNE 191515Z AUTO 00000KT 10SM CLR 32/23 A3000 RMK AO2 T03160234
KMNE 191455Z AUTO 00000KT 10SM CLR 31/24 A2999 RMK AO2 T03100235
KMNE 191435Z AUTO 00000KT 10SM CLR 30/24 A2999 RMK AO2 T02990236
KMNE 191415Z AUTO 00000KT 10SM CLR 29/24 A2999 RMK AO2 T02900240
KMNE 191355Z AUTO 00000KT 10SM CLR 28/24 A2998 RMK AO2 T02800237
KMNE 191335Z AUTO 00000KT 10SM CLR 27/24 A2998 RMK AO2 T02660237
KMNE 191315Z AUTO 00000KT 10SM CLR 26/24 A2998 RMK AO2 T02560237
KMNE 191255Z AUTO 00000KT 7SM CLR 25/23 A2998 RMK AO2 T02450232
KMNE 191235Z AUTO 00000KT 7SM CLR 24/23 A2997 RMK AO2 T02410229
KMNE 191215Z AUTO 00000KT 5SM BR CLR 24/23 A2996 RMK AO2 T02400226
KMNE 191155Z AUTO 00000KT 7SM CLR 24/23 A2996 RMK AO2 T02400227 10260 20240
KMNE 191135Z AUTO 00000KT 7SM CLR 24/23 A2996 RMK AO2 T02400227
KMNE 191115Z AUTO 00000KT 7SM CLR 24/23 A2996 RMK AO2 T02400227
KMNE 191055Z AUTO 00000KT 7SM CLR 24/23 A2995 RMK AO2 T02400225
KMNE 191035Z AUTO 00000KT 10SM CLR 24/23 A2995 RMK AO2 T02420226
KMNE 191015Z AUTO 00000KT 10SM CLR 24/23 A2994 RMK AO2 T02410225
KMNE 190955Z AUTO 00000KT 10SM CLR 24/23 A2994 RMK AO2 T02440227
KMNE 190935Z AUTO 00000KT 10SM CLR 25/23 A2994 RMK AO2 T02450228
KMNE 190915Z AUTO 00000KT 10SM CLR 25/23 A2994 RMK AO2 T02450229
KMNE 190855Z AUTO 00000KT 10SM CLR 25/23 A2993 RMK AO2 T02460229
KMNE 190835Z AUTO 00000KT 10SM CLR 25/23 A2993 RMK AO2 T02450227
KMNE 190815Z AUTO 00000KT 10SM CLR 25/23 A2993 RMK AO2 T02490228 PWINO
KMNE 190755Z AUTO 00000KT 10SM CLR 25/23 A2994 RMK AO2 T02490229
KMNE 190735Z AUTO 00000KT 10SM CLR 25/23 A2994 RMK AO2 T02520230
KMNE 190715Z AUTO 00000KT 10SM CLR 25/23 A2994 RMK AO2 T02520230 PWINO
KMNE 190655Z AUTO 00000KT 10SM CLR 26/23 A2994 RMK AO2 T02550232
KMNE 190635Z AUTO 00000KT 10SM CLR 26/23 A2994 RMK AO2 T02560230
KMNE 190615Z AUTO 00000KT 10SM CLR 26/23 A2994 RMK AO2 T02580230
KMNE 190555Z AUTO 00000KT 10SM CLR 26/23 A2994 RMK AO2 T02600232 10330 20257 403650235
KMNE 190535Z AUTO 00000KT 10SM CLR 26/23 A2994 RMK AO2 T02610231
KMNE 190515Z AUTO 00000KT 10SM CLR 26/23 A2995 RMK AO2 T02620231
KMNE 190455Z AUTO 00000KT 10SM CLR 26/23 A2995 RMK AO2 T02600232
KMNE 190435Z AUTO 00000KT 10SM CLR 27/24 A2995 RMK AO2 T02650237
KMNE 190415Z AUTO 00000KT 10SM CLR 27/24 A2994 RMK AO2 T02670236
KMNE 190355Z AUTO 00000KT 10SM CLR 27/24 A2994 RMK AO2 T02660236
KMNE 190335Z AUTO 00000KT 10SM CLR 27/24 A2994 RMK AO2 T02670235
KMNE 190315Z AUTO 00000KT 10SM CLR 27/24 A2994 RMK AO2 T02710239 PWINO
KMNE 190255Z AUTO 00000KT 10SM CLR 28/24 A2994 RMK AO2 T02750239
KMNE 190235Z AUTO 00000KT 10SM CLR 28/24 A2993 RMK AO2 T02770240
KMNE 190215Z AUTO 00000KT 10SM CLR 28/24 A2992 RMK AO2 T02790240
KMNE 190155Z AUTO 00000KT 10SM CLR 29/24 A2992 RMK AO2 T02860238
KMNE 190135Z AUTO 06003KT 10SM CLR 29/24 A2991 RMK AO2 T02860238
KMNE 190115Z AUTO 06003KT 10SM CLR 29/24 A2991 RMK AO2 T02850241
KMNE 190055Z AUTO 00000KT 10SM CLR 29/24 A2990 RMK AO2 T02940239
KMNE 190035Z AUTO 00000KT 10SM CLR 30/24 A2990 RMK AO2 T02980244
KMNE 190015Z AUTO 00000KT 10SM CLR 31/23 A2990 RMK AO2 T03140234
KMNE 182355Z AUTO 00000KT 10SM CLR 33/22 A2990 RMK AO2 T03320223 10365 20326
KMNE 182335Z AUTO 00000KT 10SM CLR 33/23 A2990 RMK AO2 T03320225
KMNE 182315Z AUTO 00000KT 10SM SCT060 SCT070 33/23 A2990 RMK AO2 LTG DSNT S T03310231
KMNE 182255Z AUTO 00000KT 10SM SCT060 33/23 A2990 RMK AO2 T03260231
KMNE 182235Z AUTO 00000KT 10SM CLR 34/23 A2990 RMK AO2 T03390226
KMNE 182215Z AUTO 00000KT 10SM CLR 35/21 A2990 RMK AO2 T03450214 PWINO
KMNE 182155Z AUTO 32003KT 10SM CLR 36/21 A2990 RMK AO2 T03560208
KMNE 182135Z AUTO 35003KT 10SM CLR 36/21 A2990 RMK AO2 T03600207
KMNE 182115Z AUTO 00000KT 10SM CLR 36/21 A2991 RMK AO2 T03600206
KMNE 182055Z AUTO 00000KT 10SM CLR 36/21 A2991 RMK AO2 T03580211